createdAt,value
2019-04-07T00:01:23.068Z,12.50
2019-04-07T00:03:49.676Z,12.50
2019-04-07T00:06:16.280Z,12.50
2019-04-07T00:08:43.250Z,12.50
2019-04-07T00:11:10.603Z,12.50
2019-04-07T00:13:39.034Z,12.40
2019-04-07T00:16:05.581Z,12.40
2019-04-07T00:18:32.567Z,12.40
2019-04-07T00:20:59.217Z,12.40
2019-04-07T00:23:25.899Z,12.40
2019-04-07T00:25:52.519Z,12.40
2019-04-07T00:28:19.633Z,12.40
2019-04-07T00:30:46.346Z,12.40
2019-04-07T00:33:13.363Z,12.30
2019-04-07T00:35:41.751Z,12.30
2019-04-07T00:38:08.375Z,12.30
2019-04-07T00:40:34.997Z,12.30
2019-04-07T00:43:01.595Z,12.30
2019-04-07T00:45:28.185Z,12.30
2019-04-07T00:47:54.767Z,12.30
2019-04-07T00:50:21.990Z,12.30
2019-04-07T00:52:49.168Z,12.30
2019-04-07T00:55:16.663Z,12.30
2019-04-07T00:57:44.089Z,12.20
2019-04-07T01:00:11.827Z,12.20
2019-04-07T01:02:38.821Z,12.20
2019-04-07T01:05:06.043Z,12.20
2019-04-07T01:07:33.434Z,12.10
2019-04-07T01:10:00.745Z,12.00
2019-04-07T01:12:27.357Z,11.70
2019-04-07T01:14:54.445Z,12.20
2019-04-07T01:17:21.561Z,12.20
2019-04-07T01:19:48.660Z,12.20
2019-04-07T01:22:15.687Z,12.10
2019-04-07T01:24:42.998Z,12.10
2019-04-07T01:27:10.433Z,12.10
2019-04-07T01:29:37.093Z,12.10
2019-04-07T01:32:04.042Z,12.10
2019-04-07T01:34:32.444Z,12.10
2019-04-07T01:36:59.789Z,12.10
2019-04-07T01:39:27.129Z,12.10
2019-04-07T01:42:15.371Z,12.10
2019-04-07T01:45:00.371Z,12.10
2019-04-07T01:47:33.301Z,12.00
2019-04-07T01:50:24.795Z,12.00
2019-04-07T01:53:02.549Z,12.00
2019-04-07T01:55:47.170Z,12.00
2019-04-07T01:58:42.831Z,12.00
2019-04-07T02:01:27.584Z,12.00
2019-04-07T02:04:14.301Z,12.00
2019-04-07T02:06:58.903Z,12.00
2019-04-07T02:09:34.688Z,12.00
2019-04-07T02:12:11.952Z,11.90
2019-04-07T02:14:45.534Z,11.90
2019-04-07T02:17:46.952Z,11.50
2019-04-07T02:20:38.786Z,11.90
2019-04-07T02:23:21.999Z,11.90
2019-04-07T02:26:06.102Z,11.90
2019-04-07T02:28:54.774Z,11.90
2019-04-07T02:31:40.134Z,11.90
2019-04-07T02:34:18.670Z,11.90
2019-04-07T02:37:07.781Z,11.80
2019-04-07T02:39:43.751Z,11.80
2019-04-07T02:42:30.396Z,11.80
2019-04-07T02:45:25.497Z,11.80
2019-04-07T02:48:14.837Z,11.40
2019-04-07T02:51:01.302Z,11.80
2019-04-07T02:53:48.065Z,11.80
2019-04-07T02:56:40.014Z,11.70
2019-04-07T02:59:16.185Z,11.70
2019-04-07T03:02:00.740Z,11.70
2019-04-07T03:04:56.738Z,11.70
2019-04-07T03:07:41.755Z,11.30
2019-04-07T03:10:27.788Z,11.70
2019-04-07T03:13:32.183Z,11.60
2019-04-07T03:16:11.861Z,11.40
2019-04-07T03:18:47.078Z,11.60
2019-04-07T03:21:33.353Z,11.60
2019-04-07T03:24:19.544Z,11.60
2019-04-07T03:27:10.104Z,11.60
2019-04-07T03:30:02.129Z,11.60
2019-04-07T03:32:49.300Z,11.50
2019-04-07T03:35:29.049Z,11.50
2019-04-07T03:38:07.854Z,11.50
2019-04-07T03:40:54.896Z,11.50
2019-04-07T03:43:35.999Z,11.50
2019-04-07T03:46:25.214Z,11.50
2019-04-07T03:48:57.998Z,11.50
2019-04-07T03:51:33.909Z,11.40
2019-04-07T03:54:19.136Z,11.40
2019-04-07T03:57:24.145Z,11.40
2019-04-07T04:00:10.498Z,11.40
2019-04-07T04:02:48.445Z,11.40
2019-04-07T04:05:47.702Z,11.30
2019-04-07T04:08:21.150Z,11.40
2019-04-07T04:11:14.824Z,11.40
2019-04-07T04:13:58.367Z,11.40
2019-04-07T04:16:34.063Z,11.40
2019-04-07T04:19:02.480Z,11.30
2019-04-07T04:21:30.819Z,11.30
2019-04-07T04:24:00.583Z,11.30
2019-04-07T04:26:28.966Z,11.30
2019-04-07T04:28:58.252Z,11.30
2019-04-07T04:31:25.683Z,11.30
2019-04-07T04:33:55.595Z,11.30
2019-04-07T04:36:27.291Z,11.30
2019-04-07T04:38:55.513Z,11.30
2019-04-07T04:41:23.143Z,11.30
2019-04-07T04:43:50.127Z,11.30
2019-04-07T04:46:17.058Z,11.30
2019-04-07T04:48:44.031Z,11.30
2019-04-07T04:51:11.786Z,11.30
2019-04-07T04:53:38.440Z,11.20
2019-04-07T04:56:05.592Z,11.20
2019-04-07T04:58:32.662Z,11.20
2019-04-07T05:00:59.705Z,11.20
2019-04-07T05:03:27.189Z,11.20
2019-04-07T05:05:54.548Z,11.50
2019-04-07T05:08:21.336Z,11.30
2019-04-07T05:10:48.986Z,11.20
2019-04-07T05:13:15.992Z,11.20
2019-04-07T05:15:43.372Z,11.20
2019-04-07T05:18:12.043Z,11.20
2019-04-07T05:20:39.783Z,11.20
2019-04-07T05:23:06.784Z,11.20
2019-04-07T05:25:33.788Z,11.20
2019-04-07T05:28:01.218Z,11.20
2019-04-07T05:30:28.238Z,11.20
2019-04-07T05:32:55.529Z,11.20
2019-04-07T05:35:22.687Z,11.20
2019-04-07T05:38:00.136Z,11.20
2019-04-07T05:40:18.018Z,11.20
2019-04-07T05:42:44.611Z,11.20
2019-04-07T05:45:11.540Z,11.20
2019-04-07T05:47:43.164Z,11.20
2019-04-07T05:50:07.719Z,11.20
2019-04-07T05:52:39.056Z,11.20
2019-04-07T05:55:02.883Z,11.20
2019-04-07T05:57:33.378Z,11.20
2019-04-07T05:59:58.076Z,11.20
2019-04-07T06:02:24.604Z,11.20
2019-04-07T06:04:53.485Z,11.20
2019-04-07T06:07:20.267Z,11.20
2019-04-07T06:09:49.931Z,11.20
2019-04-07T06:12:16.098Z,11.20
2019-04-07T06:14:45.904Z,11.20
2019-04-07T06:17:11.137Z,11.20
2019-04-07T06:19:41.088Z,11.20
2019-04-07T06:22:07.917Z,11.20
2019-04-07T06:24:41.297Z,11.20
2019-04-07T06:27:08.579Z,11.20
2019-04-07T06:29:36.600Z,11.20
2019-04-07T06:32:05.227Z,11.20
2019-04-07T06:34:33.781Z,11.20
2019-04-07T06:37:00.611Z,11.20
2019-04-07T06:39:27.751Z,11.20
2019-04-07T06:41:54.716Z,11.20
2019-04-07T06:44:22.988Z,11.20
2019-04-07T06:47:04.694Z,11.20
2019-04-07T06:49:53.651Z,11.20
2019-04-07T06:52:38.678Z,11.20
2019-04-07T06:55:33.017Z,11.30
2019-04-07T06:58:14.552Z,11.30
2019-04-07T07:01:06.911Z,11.30
2019-04-07T07:03:53.818Z,11.30
2019-04-07T07:06:47.183Z,11.30
2019-04-07T07:09:29.220Z,11.30
2019-04-07T07:12:31.656Z,11.30
2019-04-07T07:15:19.246Z,11.40
2019-04-07T07:18:04.651Z,11.40
2019-04-07T07:20:49.691Z,11.40
2019-04-07T07:23:28.850Z,11.40
2019-04-07T07:25:56.537Z,11.40
2019-04-07T07:28:23.715Z,11.40
2019-04-07T07:30:52.538Z,11.40
2019-04-07T07:33:19.056Z,11.50
2019-04-07T07:35:49.111Z,11.50
2019-04-07T07:38:14.882Z,11.50
2019-04-07T07:40:42.674Z,11.50
2019-04-07T07:43:09.795Z,11.60
2019-04-07T07:45:37.175Z,11.30
2019-04-07T07:48:06.355Z,11.60
2019-04-07T07:50:36.757Z,11.60
2019-04-07T07:53:01.408Z,11.70
2019-04-07T07:55:30.621Z,11.70
2019-04-07T07:57:59.010Z,11.70
2019-04-07T08:00:25.681Z,11.70
2019-04-07T08:02:53.797Z,11.80
2019-04-07T08:05:22.757Z,11.80
2019-04-07T08:07:50.451Z,11.80
2019-04-07T08:10:18.614Z,11.90
2019-04-07T08:12:47.214Z,11.80
2019-04-07T08:15:13.874Z,11.90
2019-04-07T08:17:40.977Z,12.00
2019-04-07T08:20:07.846Z,12.00
2019-04-07T08:22:40.728Z,12.00
2019-04-07T08:25:02.913Z,11.70
2019-04-07T08:27:31.049Z,12.00
2019-04-07T08:29:58.297Z,12.20
2019-04-07T08:32:28.068Z,12.20
2019-04-07T08:34:54.763Z,12.20
2019-04-07T08:37:21.900Z,12.30
2019-04-07T08:39:48.711Z,12.30
2019-04-07T08:42:18.619Z,12.40
2019-04-07T08:44:45.129Z,12.40
2019-04-07T08:47:22.169Z,12.50
2019-04-07T08:49:48.257Z,12.50
2019-04-07T08:52:15.278Z,12.60
2019-04-07T08:54:42.221Z,12.60
2019-04-07T08:57:09.540Z,12.70
2019-04-07T08:59:39.871Z,12.70
2019-04-07T09:02:07.513Z,12.70
2019-04-07T09:04:34.459Z,12.80
2019-04-07T09:07:03.029Z,12.80
2019-04-07T09:09:34.056Z,12.90
2019-04-07T09:11:59.290Z,12.90
2019-04-07T09:14:25.939Z,13.00
2019-04-07T09:17:15.431Z,13.00
2019-04-07T09:20:06.258Z,13.10
2019-04-07T09:22:54.978Z,13.10
2019-04-07T09:25:41.112Z,13.20
2019-04-07T09:28:27.373Z,13.20
2019-04-07T09:31:12.122Z,13.30
2019-04-07T09:33:55.026Z,13.30
2019-04-07T09:36:44.101Z,13.40
2019-04-07T09:39:34.529Z,13.50
2019-04-07T09:42:29.166Z,13.50
2019-04-07T09:45:24.074Z,13.60
2019-04-07T09:48:17.715Z,13.60
2019-04-07T09:50:50.332Z,13.70
2019-04-07T09:53:25.742Z,13.80
2019-04-07T09:56:14.662Z,13.80
2019-04-07T09:58:59.207Z,13.90
2019-04-07T10:01:32.998Z,13.90
2019-04-07T10:04:07.797Z,14.00
2019-04-07T10:06:52.290Z,14.10
2019-04-07T10:09:44.704Z,14.10
2019-04-07T10:12:28.246Z,14.20
2019-04-07T10:15:20.491Z,14.20
2019-04-07T10:17:57.617Z,14.30
2019-04-07T10:20:35.838Z,14.40
2019-04-07T10:23:21.940Z,14.40
2019-04-07T10:25:58.638Z,14.50
2019-04-07T10:28:39.961Z,14.50
2019-04-07T10:31:28.361Z,14.60
2019-04-07T10:34:17.235Z,14.70
2019-04-07T10:37:18.888Z,14.70
2019-04-07T10:40:19.584Z,14.80
2019-04-07T10:43:11.702Z,14.90
2019-04-07T10:45:50.894Z,15.00
2019-04-07T10:48:45.720Z,15.00
2019-04-07T10:51:29.336Z,15.10
2019-04-07T10:54:22.200Z,15.20
2019-04-07T10:56:54.293Z,15.20
2019-04-07T10:59:40.251Z,15.30
2019-04-07T11:02:20.641Z,15.30
2019-04-07T11:07:59.240Z,15.30
2019-04-07T11:10:44.197Z,15.60
2019-04-07T11:13:40.329Z,15.60
2019-04-07T11:16:16.251Z,15.70
2019-04-07T11:19:04.484Z,15.80
2019-04-07T11:21:50.243Z,15.80
2019-04-07T11:24:35.214Z,15.90
2019-04-07T11:27:21.624Z,15.90
2019-04-07T11:30:11.469Z,16.00
2019-04-07T11:32:57.680Z,16.10
2019-04-07T11:35:37.403Z,16.10
2019-04-07T11:38:19.101Z,16.20
2019-04-07T11:41:04.612Z,16.30
2019-04-07T11:43:49.077Z,16.30
2019-04-07T11:46:41.930Z,16.40
2019-04-07T11:49:13.791Z,16.50
2019-04-07T11:51:49.347Z,16.50
2019-04-07T11:54:35.722Z,16.60
2019-04-07T11:57:21.526Z,16.70
2019-04-07T12:00:10.588Z,16.70
2019-04-07T12:02:45.553Z,16.80
2019-04-07T12:05:28.713Z,16.90
2019-04-07T12:08:13.996Z,16.90
2019-04-07T12:11:04.668Z,17.00
2019-04-07T12:13:47.956Z,17.10
2019-04-07T12:16:27.644Z,17.10
2019-04-07T12:19:11.673Z,17.20
2019-04-07T12:21:58.292Z,17.30
2019-04-07T12:24:45.492Z,17.30
2019-04-07T12:27:22.473Z,17.40
2019-04-07T12:30:11.465Z,17.40
2019-04-07T12:33:00.429Z,17.50
2019-04-07T12:35:55.170Z,17.60
2019-04-07T12:38:45.013Z,17.60
2019-04-07T12:41:27.745Z,17.70
2019-04-07T12:44:23.421Z,17.70
2019-04-07T12:47:13.409Z,17.80
2019-04-07T12:49:59.428Z,17.90
2019-04-07T12:53:03.439Z,17.70
2019-04-07T12:56:08.083Z,18.00
2019-04-07T12:58:50.517Z,17.80
2019-04-07T13:01:28.118Z,18.10
2019-04-07T13:04:20.034Z,18.10
2019-04-07T13:07:21.808Z,18.20
2019-04-07T13:10:14.301Z,18.20
2019-04-07T13:13:13.405Z,17.90
2019-04-07T13:16:03.438Z,18.30
2019-04-07T13:18:52.752Z,18.40
2019-04-07T13:21:27.893Z,18.40
2019-04-07T13:24:13.930Z,18.50
2019-04-07T13:26:47.767Z,18.50
2019-04-07T13:29:21.491Z,18.60
2019-04-07T13:32:10.351Z,18.60
2019-04-07T13:35:11.724Z,18.70
2019-04-07T13:37:45.535Z,18.70
2019-04-07T13:40:22.705Z,18.70
2019-04-07T13:43:09.085Z,18.80
2019-04-07T13:48:43.250Z,18.80
2019-04-07T13:51:28.006Z,18.90
2019-04-07T13:54:17.825Z,18.90
2019-04-07T13:57:04.470Z,19.00
2019-04-07T13:59:49.243Z,19.00
2019-04-07T14:02:37.824Z,19.00
2019-04-07T14:05:25.918Z,19.10
2019-04-07T14:08:16.084Z,19.10
2019-04-07T14:10:51.327Z,19.10
2019-04-07T14:13:40.407Z,19.20
2019-04-07T14:16:30.163Z,19.20
2019-04-07T14:19:15.385Z,19.20
2019-04-07T14:21:55.985Z,19.30
2019-04-07T14:24:41.486Z,19.30
2019-04-07T14:27:30.972Z,19.30
2019-04-07T14:30:10.306Z,19.30
2019-04-07T14:32:56.761Z,19.40
2019-04-07T14:35:43.027Z,19.40
2019-04-07T14:38:26.566Z,19.40
2019-04-07T14:41:13.881Z,19.50
2019-04-07T14:43:59.453Z,19.50
2019-04-07T14:46:58.948Z,19.50
2019-04-07T14:49:36.832Z,19.50
2019-04-07T14:52:25.271Z,19.60
2019-04-07T14:55:17.248Z,19.60
2019-04-07T14:58:02.078Z,19.60
2019-04-07T15:00:49.091Z,19.60
2019-04-07T15:03:16.918Z,19.60
2019-04-07T15:05:46.203Z,19.60
2019-04-07T15:08:36.619Z,19.60
2019-04-07T15:11:15.263Z,19.70
2019-04-07T15:13:41.836Z,19.70
2019-04-07T15:16:11.177Z,19.70
2019-04-07T15:18:38.198Z,19.70
2019-04-07T15:21:05.682Z,19.40
2019-04-07T15:23:33.379Z,19.70
2019-04-07T15:26:00.383Z,19.80
2019-04-07T15:28:29.767Z,19.80
2019-04-07T15:30:56.823Z,19.80
2019-04-07T15:33:24.196Z,19.80
2019-04-07T15:35:52.316Z,19.80
2019-04-07T15:38:23.839Z,19.80
2019-04-07T15:40:48.196Z,19.80
2019-04-07T15:43:15.825Z,19.80
2019-04-07T15:45:44.451Z,19.80
2019-04-07T15:48:11.351Z,19.80
2019-04-07T15:50:38.337Z,19.80
2019-04-07T15:53:14.968Z,19.80
2019-04-07T15:55:49.197Z,19.60
2019-04-07T15:58:09.653Z,19.70
2019-04-07T16:00:36.253Z,19.70
2019-04-07T16:03:04.185Z,19.70
2019-04-07T16:05:38.024Z,19.70
2019-04-07T16:07:59.846Z,19.60
2019-04-07T16:10:26.533Z,19.60
2019-04-07T16:12:54.357Z,19.60
2019-04-07T16:15:21.980Z,19.60
2019-04-07T16:17:49.118Z,19.50
2019-04-07T16:20:23.282Z,19.50
2019-04-07T16:22:46.584Z,19.40
2019-04-07T16:25:13.222Z,19.40
2019-04-07T16:27:40.050Z,19.40
2019-04-07T16:30:07.461Z,19.30
2019-04-07T16:32:34.190Z,19.30
2019-04-07T16:35:01.770Z,19.20
2019-04-07T16:37:29.438Z,19.20
2019-04-07T16:39:57.996Z,19.20
2019-04-07T16:42:25.440Z,19.10
2019-04-07T16:44:52.656Z,19.10
2019-04-07T16:47:24.449Z,19.00
2019-04-07T16:49:48.982Z,19.00
2019-04-07T16:52:15.762Z,18.90
2019-04-07T16:54:44.972Z,18.90
2019-04-07T16:57:12.979Z,18.90
2019-04-07T16:59:42.778Z,18.80
2019-04-07T17:02:09.166Z,18.80
2019-04-07T17:04:36.495Z,18.70
2019-04-07T17:07:05.344Z,18.70
2019-04-07T17:09:34.105Z,18.60
2019-04-07T17:12:00.632Z,18.60
2019-04-07T17:14:27.335Z,18.60
2019-04-07T17:16:54.662Z,18.50
2019-04-07T17:19:21.521Z,18.50
2019-04-07T17:21:48.996Z,18.40
2019-04-07T17:24:16.324Z,18.40
2019-04-07T17:26:43.535Z,18.40
2019-04-07T17:29:10.907Z,18.10
2019-04-07T17:31:38.030Z,18.30
2019-04-07T17:34:07.426Z,18.20
2019-04-07T17:36:34.279Z,18.20
2019-04-07T17:39:20.570Z,18.20
2019-04-07T17:41:49.875Z,18.10
2019-04-07T17:44:28.611Z,18.10
2019-04-07T17:47:13.707Z,18.00
2019-04-07T17:50:12.697Z,18.00
2019-04-07T17:52:58.048Z,17.90
2019-04-07T17:55:44.221Z,17.80
2019-04-07T17:58:32.066Z,17.70
2019-04-07T18:01:36.598Z,17.50
2019-04-07T18:04:42.937Z,17.40
2019-04-07T18:07:27.466Z,17.30
2019-04-07T18:10:16.673Z,17.20
2019-04-07T18:12:51.433Z,17.20
2019-04-07T18:15:46.754Z,17.20
2019-04-07T18:18:44.807Z,17.20
2019-04-07T18:21:25.749Z,17.10
2019-04-07T18:24:09.094Z,17.10
2019-04-07T18:26:45.110Z,17.10
2019-04-07T18:29:21.238Z,17.00
2019-04-07T18:32:25.314Z,17.00
2019-04-07T18:35:02.528Z,17.00
2019-04-07T18:37:42.267Z,16.90
2019-04-07T18:40:29.546Z,16.90
2019-04-07T18:43:19.907Z,16.90
2019-04-07T18:46:09.871Z,16.80
2019-04-07T18:49:06.781Z,16.80
2019-04-07T18:51:58.981Z,16.80
2019-04-07T18:55:06.619Z,16.70
2019-04-07T18:57:52.016Z,16.70
2019-04-07T19:00:50.669Z,16.70
2019-04-07T19:03:36.210Z,16.60
2019-04-07T19:06:22.355Z,16.60
2019-04-07T19:09:08.522Z,16.60
2019-04-07T19:12:14.095Z,16.50
2019-04-07T19:15:03.741Z,16.30
2019-04-07T19:17:46.129Z,16.50
2019-04-07T19:20:47.980Z,16.40
2019-04-07T19:23:49.075Z,16.40
2019-04-07T19:26:33.560Z,16.10
2019-04-07T19:29:28.679Z,16.30
2019-04-07T19:32:27.183Z,16.30
2019-04-07T19:35:13.444Z,16.30
2019-04-07T19:38:08.770Z,16.20
2019-04-07T19:40:49.201Z,16.20
2019-04-07T19:43:43.703Z,16.10
2019-04-07T19:46:30.636Z,16.10
2019-04-07T19:49:20.413Z,16.10
2019-04-07T19:52:10.722Z,16.10
2019-04-07T19:54:56.065Z,16.00
2019-04-07T19:57:42.847Z,16.00
2019-04-07T20:00:26.111Z,16.00
2019-04-07T20:03:10.110Z,15.90
2019-04-07T20:06:14.702Z,15.90
2019-04-07T20:09:19.598Z,15.90
2019-04-07T20:12:06.457Z,15.80
2019-04-07T20:15:04.497Z,15.80
2019-04-07T20:17:41.535Z,15.80
2019-04-07T20:20:14.676Z,15.80
2019-04-07T20:23:04.421Z,15.70
2019-04-07T20:25:46.198Z,15.70
2019-04-07T20:28:25.159Z,15.70
2019-04-07T20:31:21.900Z,15.70
2019-04-07T20:34:02.229Z,15.60
2019-04-07T20:36:38.601Z,15.60
2019-04-07T20:39:09.415Z,15.60
2019-04-07T20:41:58.840Z,15.60
2019-04-07T20:44:44.788Z,15.50
2019-04-07T20:47:29.639Z,15.50
2019-04-07T20:50:15.493Z,15.50
2019-04-07T20:52:53.603Z,15.30
2019-04-07T20:55:27.645Z,15.40
2019-04-07T20:58:42.167Z,15.40
2019-04-07T21:01:18.725Z,15.30
2019-04-07T21:04:03.225Z,15.40
2019-04-07T21:06:49.623Z,15.30
2019-04-07T21:09:23.613Z,15.30
2019-04-07T21:12:25.248Z,15.30
2019-04-07T21:15:20.884Z,15.20
2019-04-07T21:17:50.219Z,15.20
2019-04-07T21:20:36.737Z,15.20
2019-04-07T21:23:18.624Z,15.10
2019-04-07T21:26:13.850Z,15.10
2019-04-07T21:28:58.881Z,15.10
2019-04-07T21:31:42.816Z,15.00
2019-04-07T21:34:38.573Z,15.00
2019-04-07T21:37:15.181Z,15.00
2019-04-07T21:40:07.566Z,15.00
2019-04-07T21:42:54.505Z,15.00
2019-04-07T21:45:45.704Z,14.90
2019-04-07T21:48:16.384Z,14.90
2019-04-07T21:51:02.333Z,14.90
2019-04-07T21:53:48.650Z,14.90
2019-04-07T21:56:38.983Z,14.90
2019-04-07T21:59:33.575Z,14.80
2019-04-07T22:02:35.203Z,14.80
2019-04-07T22:08:12.904Z,14.50
2019-04-07T22:10:36.059Z,14.70
2019-04-07T22:13:04.935Z,14.70
2019-04-07T22:15:43.240Z,14.70
2019-04-07T22:18:06.286Z,14.70
2019-04-07T22:20:32.315Z,14.70
2019-04-07T22:23:02.849Z,14.60
2019-04-07T22:25:32.534Z,14.60
2019-04-07T22:28:01.598Z,14.60
2019-04-07T22:30:30.611Z,14.60
2019-04-07T22:32:59.765Z,14.60
2019-04-07T22:35:27.135Z,14.50
2019-04-07T22:37:54.771Z,14.50
2019-04-07T22:40:22.525Z,14.50
2019-04-07T22:42:50.158Z,14.50
2019-04-07T22:45:21.822Z,14.50
2019-04-07T22:47:51.539Z,14.50
2019-04-07T22:50:15.949Z,14.40
2019-04-07T22:52:47.308Z,14.40
2019-04-07T22:55:12.193Z,14.40
2019-04-07T22:57:38.967Z,14.40
2019-04-07T23:00:06.375Z,14.40
2019-04-07T23:02:33.051Z,14.30
2019-04-07T23:04:59.759Z,14.30
2019-04-07T23:07:26.367Z,14.30
2019-04-07T23:09:53.813Z,14.30
2019-04-07T23:12:20.983Z,14.30
2019-04-07T23:14:47.725Z,14.30
2019-04-07T23:17:15.388Z,14.30
2019-04-07T23:19:43.843Z,14.20
2019-04-07T23:22:10.352Z,14.20
2019-04-07T23:24:36.964Z,14.00
2019-04-07T23:27:04.130Z,14.20
2019-04-07T23:29:30.813Z,14.20
2019-04-07T23:31:57.650Z,14.10
2019-04-07T23:34:25.347Z,14.10
2019-04-07T23:36:52.449Z,14.10
2019-04-07T23:39:19.541Z,14.10
2019-04-07T23:41:46.194Z,14.10
2019-04-07T23:44:13.011Z,14.10
2019-04-07T23:46:39.750Z,14.00
2019-04-07T23:49:06.370Z,14.00
2019-04-07T23:51:32.930Z,14.00
2019-04-07T23:54:00.679Z,14.00
2019-04-07T23:56:27.344Z,14.00
2019-04-07T23:58:54.195Z,14.00
